Sequoia Natl Park, California
Current Conditions -  °F | °C
As of 2:55 PM on Wednesday 22 Oct 2014 (Local Time) from KPTV Reporting Station
Few Clouds Few Clouds  
Wind Chill: 73°   Ceiling: Unl
Heat Index: 73°   Visibility: 10mi
Dew Point: 45°   Wind: 0mph
Humidity: 36%   Direction: NA
Pressure: 30.02"   Gusts: NA
Location:  36.5°N, 118.5°W
Report Text: KPTV 222155Z 00000KT 10SM FEW025 23/07 A3002 RMK AO1
Loading
Personal Weather Stations






























Interactive Weather Map
Tropical Storm Tracking
New forecast layout! Learn more

10-Day Weather Forecast

Advertisements
Track Severe Weather on mobile